Terminal Aerodrome Forecast
Issued by NWS

Home | Current Version | Previous Version | Text Only | Print | Product List | Glossary On
Versions: 1 2 3 4 5 6 7 8 9 10 11 12 13 14
000
FTUS43 KTOP 200500
TAFFOE
TAF
KFOE 200520Z 2006/2106 15008KT P6SM BKN250 WS006/20035KT
     FM201500 19014KT P6SM SCT050 BKN150
     FM202100 19013KT P6SM VCTS SCT040CB BKN140
     FM210200 16007KT P6SM BKN100=

USA.gov is the U.S. government's official web portal to all federal, state and local government web resources and services.